createdAt,value
2019-05-05T00:03:40.686Z,93472.39
2019-05-05T00:08:45.762Z,93471.89
2019-05-05T00:14:01.159Z,93470.15
2019-05-05T00:19:06.067Z,93468.09
2019-05-05T00:24:10.755Z,93460.48
2019-05-05T00:29:15.441Z,93477.24
2019-05-05T00:34:20.150Z,93472.30
2019-05-05T00:39:25.511Z,93465.91
2019-05-05T00:44:30.243Z,93469.83
2019-05-05T00:49:45.528Z,93469.83
2019-05-05T00:54:44.929Z,93478.56
2019-05-05T00:59:48.952Z,93473.61
2019-05-05T01:05:04.505Z,93467.78
2019-05-05T01:10:09.588Z,93474.45
2019-05-05T01:15:15.110Z,93461.93
2019-05-05T01:20:19.762Z,93463.88
2019-05-05T01:25:25.457Z,93459.53
2019-05-05T01:30:35.061Z,93447.94
2019-05-05T01:35:39.860Z,93444.96
2019-05-05T01:40:52.063Z,93446.45
2019-05-05T01:45:57.146Z,93445.59
2019-05-05T01:51:01.777Z,93454.80
2019-05-05T01:56:06.676Z,93447.84
2019-05-05T02:01:11.383Z,93438.42
2019-05-05T02:06:15.998Z,93438.83
2019-05-05T02:11:24.519Z,93429.84
2019-05-05T02:16:28.642Z,93439.20
2019-05-05T02:21:35.195Z,93441.67
2019-05-05T02:26:39.620Z,93435.32
2019-05-05T02:31:45.805Z,93417.45
2019-05-05T02:36:51.622Z,93428.48
2019-05-05T02:41:58.285Z,93414.73
2019-05-05T02:47:10.197Z,93407.37
2019-05-05T02:52:15.841Z,93400.37
2019-05-05T02:57:23.936Z,93395.80
2019-05-05T03:02:30.232Z,93391.19
2019-05-05T03:07:36.103Z,93388.66
2019-05-05T03:12:41.136Z,93388.23
2019-05-05T03:17:46.470Z,93385.75
2019-05-05T03:22:51.124Z,93387.69
2019-05-05T03:27:55.830Z,93367.02
2019-05-05T03:33:00.620Z,93363.50
2019-05-05T03:38:05.232Z,93366.16
2019-05-05T03:43:11.576Z,93355.69
2019-05-05T03:48:16.309Z,93356.75
2019-05-05T03:53:21.098Z,93348.54
2019-05-05T03:58:26.911Z,93344.83
2019-05-05T04:03:31.472Z,93348.30
2019-05-05T04:08:38.196Z,93357.47
2019-05-05T04:13:44.778Z,93363.81
2019-05-05T04:18:51.038Z,93366.50
2019-05-05T04:23:55.691Z,93374.12
2019-05-05T04:29:02.440Z,93383.90
2019-05-05T04:34:06.546Z,93402.95
2019-05-05T04:39:11.306Z,93416.14
2019-05-05T04:44:17.940Z,93411.70
2019-05-05T04:49:26.798Z,93416.20
2019-05-05T04:54:38.947Z,93402.55
2019-05-05T04:59:44.428Z,93414.45
2019-05-05T05:04:50.842Z,93419.05
2019-05-05T05:09:55.462Z,93409.66
2019-05-05T05:14:59.969Z,93408.03
2019-05-05T05:20:06.704Z,93412.76
2019-05-05T05:25:13.454Z,93413.77
2019-05-05T05:30:17.937Z,93417.16
2019-05-05T05:35:24.401Z,93401.83
2019-05-05T05:40:36.063Z,93400.59
2019-05-05T05:45:46.907Z,93382.27
2019-05-05T05:50:55.549Z,93380.00
2019-05-05T05:56:00.046Z,93381.25
2019-05-05T06:01:06.223Z,93393.06
2019-05-05T06:06:10.960Z,93385.55
2019-05-05T06:11:15.723Z,93354.55
2019-05-05T06:16:20.347Z,93364.80
2019-05-05T06:21:24.938Z,93382.52
2019-05-05T06:26:29.631Z,93385.77
2019-05-05T06:31:34.405Z,93397.79
2019-05-05T06:36:39.030Z,93408.32
2019-05-05T06:41:45.189Z,93409.81
2019-05-05T06:47:09.607Z,93409.89
2019-05-05T06:52:14.387Z,93421.49
2019-05-05T06:57:18.929Z,93430.65
2019-05-05T07:02:23.886Z,93443.91
2019-05-05T07:07:28.492Z,93434.40
2019-05-05T07:12:34.700Z,93414.30
2019-05-05T07:17:39.438Z,93412.54
2019-05-05T07:22:58.439Z,93407.74
2019-05-05T07:27:50.513Z,93407.78
2019-05-05T07:32:55.166Z,93415.80
2019-05-05T07:37:59.698Z,93420.80
2019-05-05T07:43:04.637Z,93439.45
2019-05-05T07:48:09.336Z,93426.80
2019-05-05T07:53:17.516Z,93419.16
2019-05-05T07:58:20.286Z,93400.19
2019-05-05T08:03:24.891Z,93426.48
2019-05-05T08:08:29.518Z,93424.72
2019-05-05T08:13:34.136Z,93430.80
2019-05-05T08:18:40.508Z,93415.92
2019-05-05T08:23:46.687Z,93421.50
2019-05-05T08:29:07.843Z,93417.22
2019-05-05T08:34:14.253Z,93421.01
2019-05-05T08:39:21.474Z,93423.00
2019-05-05T08:44:25.367Z,93432.56
2019-05-05T08:49:30.109Z,93427.33
2019-05-05T08:54:34.774Z,93435.45
2019-05-05T08:59:39.400Z,93428.80
2019-05-05T09:04:44.651Z,93446.26
2019-05-05T09:09:49.405Z,93451.50
2019-05-05T09:14:54.107Z,93433.44
2019-05-05T09:19:58.786Z,93439.92
2019-05-05T09:25:13.553Z,93426.77
2019-05-05T09:30:21.165Z,93434.29
2019-05-05T09:35:25.780Z,93419.08
2019-05-05T09:40:38.658Z,93412.44
2019-05-05T09:45:44.177Z,93406.61
2019-05-05T09:50:49.999Z,93408.04
2019-05-05T09:55:54.819Z,93391.97
2019-05-05T10:00:59.369Z,93392.37
2019-05-05T10:06:05.011Z,93374.83
2019-05-05T10:11:09.740Z,93392.05
2019-05-05T10:16:14.494Z,93382.24
2019-05-05T10:21:19.143Z,93369.22
2019-05-05T10:26:23.945Z,93367.81
2019-05-05T10:31:28.513Z,93368.53
2019-05-05T10:36:33.700Z,93367.93
2019-05-05T10:41:38.495Z,93376.93
2019-05-05T10:46:43.194Z,93367.44
2019-05-05T10:51:47.970Z,93376.28
2019-05-05T10:56:52.855Z,93382.04
2019-05-05T11:01:57.478Z,93377.22
2019-05-05T11:07:04.225Z,93379.78
2019-05-05T11:12:08.470Z,93384.38
2019-05-05T11:17:14.420Z,93377.27
2019-05-05T11:22:19.183Z,93377.16
2019-05-05T11:27:24.176Z,93362.17
2019-05-05T11:32:46.656Z,93370.67
2019-05-05T11:37:51.309Z,93365.91
2019-05-05T11:42:55.951Z,93352.85
2019-05-05T11:48:00.517Z,93353.21
2019-05-05T11:53:05.223Z,93355.61
2019-05-05T11:58:09.853Z,93349.73
2019-05-05T12:03:14.612Z,93340.11
2019-05-05T12:08:19.212Z,93349.58
2019-05-05T12:13:23.604Z,93342.91
2019-05-05T12:18:28.344Z,93336.45
2019-05-05T12:23:33.933Z,93333.14
2019-05-05T12:28:41.154Z,93332.75
2019-05-05T12:33:45.755Z,93330.85
2019-05-05T12:38:50.375Z,93332.16
2019-05-05T12:43:55.162Z,93330.02
2019-05-05T12:49:01.622Z,93325.34
2019-05-05T12:54:06.338Z,93325.95
2019-05-05T12:59:14.254Z,93325.15
2019-05-05T13:04:19.017Z,93312.19
2019-05-05T13:09:24.492Z,93295.58
2019-05-05T13:14:30.671Z,93301.95
2019-05-05T13:19:39.841Z,93302.85
2019-05-05T13:24:47.040Z,93305.46
2019-05-05T13:29:53.522Z,93304.41
2019-05-05T13:34:58.015Z,93309.98
2019-05-05T13:40:04.356Z,93296.82
2019-05-05T13:45:20.074Z,93300.84
2019-05-05T13:50:29.819Z,93295.69
2019-05-05T13:55:34.797Z,93300.64
2019-05-05T14:00:39.471Z,93307.45
2019-05-05T14:05:44.207Z,93318.71
2019-05-05T14:10:49.115Z,93313.14
2019-05-05T14:15:54.509Z,93322.32
2019-05-05T14:21:00.754Z,93313.77
2019-05-05T14:26:05.454Z,93305.69
2019-05-05T14:31:13.942Z,93298.31
2019-05-05T14:36:33.409Z,93296.33
2019-05-05T14:41:38.063Z,93306.17
2019-05-05T14:46:44.594Z,93298.50
2019-05-05T14:51:51.563Z,93312.74
2019-05-05T14:56:55.992Z,93313.48
2019-05-05T15:02:00.686Z,93309.11
2019-05-05T15:07:14.421Z,93312.65
2019-05-05T15:12:23.849Z,93317.72
2019-05-05T15:17:28.416Z,93310.02
2019-05-05T15:22:34.372Z,93318.09
2019-05-05T15:27:39.059Z,93319.21
2019-05-05T15:32:43.904Z,93309.36
2019-05-05T15:37:48.530Z,93301.20
2019-05-05T15:42:54.448Z,93301.50
2019-05-05T15:47:59.187Z,93317.16
2019-05-05T15:53:03.964Z,93296.97
2019-05-05T15:58:08.492Z,93278.75
2019-05-05T16:03:13.631Z,93316.75
2019-05-05T16:08:18.454Z,93306.06
2019-05-05T16:13:23.205Z,93316.73
2019-05-05T16:18:32.923Z,93327.27
2019-05-05T16:23:39.137Z,93339.33
2019-05-05T16:28:45.623Z,93344.89
2019-05-05T16:33:50.388Z,93335.58
2019-05-05T16:38:55.332Z,93328.67
2019-05-05T16:44:00.131Z,93335.14
2019-05-05T16:49:04.764Z,93345.19
2019-05-05T16:54:10.995Z,93320.94
2019-05-05T16:59:16.536Z,93337.01
2019-05-05T17:04:21.400Z,93345.19
2019-05-05T17:09:26.017Z,93336.67
2019-05-05T17:14:33.767Z,93342.05
2019-05-05T17:19:44.299Z,93350.41
2019-05-05T17:24:48.412Z,93352.00
2019-05-05T17:29:53.636Z,93350.90
2019-05-05T17:34:58.389Z,93369.45
2019-05-05T17:40:04.704Z,93355.27
2019-05-05T17:45:15.215Z,93365.94
2019-05-05T17:50:23.768Z,93366.16
2019-05-05T17:55:29.507Z,93366.30
2019-05-05T18:00:35.839Z,93375.59
2019-05-05T18:05:58.313Z,93374.24
2019-05-05T18:11:04.533Z,93392.18
2019-05-05T18:16:09.182Z,93394.81
2019-05-05T18:21:14.310Z,93420.64
2019-05-05T18:26:19.069Z,93425.66
2019-05-05T18:31:24.250Z,93430.97
2019-05-05T18:36:29.114Z,93425.03
2019-05-05T18:41:35.376Z,93432.56
2019-05-05T18:46:40.239Z,93426.98
2019-05-05T18:51:45.838Z,93453.81
2019-05-05T18:56:50.467Z,93451.55
2019-05-05T19:02:08.732Z,93455.77
2019-05-05T19:07:15.977Z,93460.30
2019-05-05T19:12:20.606Z,93431.55
2019-05-05T19:17:25.215Z,93426.55
2019-05-05T19:22:30.016Z,93457.97
2019-05-05T19:27:34.782Z,93442.52
2019-05-05T19:32:43.717Z,93480.02
2019-05-05T19:37:48.551Z,93470.75
2019-05-05T19:42:53.863Z,93465.12
2019-05-05T19:47:58.714Z,93459.86
2019-05-05T19:53:04.572Z,93464.19
2019-05-05T19:58:09.240Z,93459.27
2019-05-05T20:03:14.379Z,93459.00
2019-05-05T20:08:19.135Z,93443.21
2019-05-05T20:13:24.198Z,93442.11
2019-05-05T20:18:28.974Z,93439.09
2019-05-05T20:23:34.077Z,93436.98
2019-05-05T20:28:39.824Z,93433.59
2019-05-05T20:34:03.953Z,93412.58
2019-05-05T20:39:08.601Z,93416.25
2019-05-05T20:44:14.713Z,93404.92
2019-05-05T20:49:19.258Z,93408.98
2019-05-05T20:54:23.831Z,93401.87
2019-05-05T20:59:31.015Z,93401.70
2019-05-05T21:04:34.790Z,93415.47
2019-05-05T21:09:39.346Z,93409.45
2019-05-05T21:14:44.659Z,93417.30
2019-05-05T21:19:49.341Z,93429.33
2019-05-05T21:24:54.369Z,93439.66
2019-05-05T21:30:00.154Z,93442.83
2019-05-05T21:35:05.915Z,93440.80
2019-05-05T21:40:11.393Z,93448.16
2019-05-05T21:45:16.019Z,93442.31
2019-05-05T21:50:43.618Z,93453.53
2019-05-05T21:55:55.718Z,93461.39
2019-05-05T22:01:04.351Z,93455.54
2019-05-05T22:06:10.261Z,93459.02
2019-05-05T22:11:14.886Z,93461.00
2019-05-05T22:16:19.724Z,93442.65
2019-05-05T22:21:26.029Z,93457.27
2019-05-05T22:26:30.663Z,93455.52
2019-05-05T22:31:35.499Z,93447.36
2019-05-05T22:36:42.094Z,93443.22
2019-05-05T22:41:46.702Z,93434.95
2019-05-05T22:46:53.663Z,93444.38
2019-05-05T22:51:57.704Z,93447.85
2019-05-05T22:57:04.443Z,93454.39
2019-05-05T23:02:09.743Z,93447.74
2019-05-05T23:07:15.948Z,93452.78
2019-05-05T23:12:20.506Z,93459.86
2019-05-05T23:17:35.578Z,93456.39
2019-05-05T23:22:57.478Z,93463.47
2019-05-05T23:28:04.041Z,93461.91
2019-05-05T23:33:08.384Z,93465.04
2019-05-05T23:38:14.345Z,93462.59
2019-05-05T23:43:20.123Z,93458.77
2019-05-05T23:48:26.247Z,93460.56
2019-05-05T23:53:30.811Z,93465.95
2019-05-05T23:58:35.374Z,93467.41
